sensor_id;sensor_type;location;lat;lon;timestamp;P1;durP1;ratioP1;P2;durP2;ratioP2
12482;SDS011;6306;47.134;15.344;2022-07-30T00:01:06;5.80;;;5.30;;
12482;SDS011;6306;47.134;15.344;2022-07-30T00:03:32;6.47;;;5.87;;
12482;SDS011;6306;47.134;15.344;2022-07-30T00:05:58;5.83;;;5.33;;
12482;SDS011;6306;47.134;15.344;2022-07-30T00:08:24;6.53;;;5.97;;
12482;SDS011;6306;47.134;15.344;2022-07-30T00:10:50;6.80;;;6.17;;
12482;SDS011;6306;47.134;15.344;2022-07-30T00:13:17;7.80;;;7.07;;
12482;SDS011;6306;47.134;15.344;2022-07-30T00:15:43;6.57;;;5.97;;
12482;SDS011;6306;47.134;15.344;2022-07-30T00:18:09;6.07;;;5.57;;
12482;SDS011;6306;47.134;15.344;2022-07-30T00:20:35;6.93;;;6.20;;
12482;SDS011;6306;47.134;15.344;2022-07-30T00:23:04;7.47;;;6.77;;
12482;SDS011;6306;47.134;15.344;2022-07-30T00:25:30;6.90;;;6.30;;
12482;SDS011;6306;47.134;15.344;2022-07-30T00:27:56;8.17;;;7.37;;
12482;SDS011;6306;47.134;15.344;2022-07-30T00:30:22;8.43;;;6.60;;
12482;SDS011;6306;47.134;15.344;2022-07-30T00:32:48;6.77;;;6.10;;
12482;SDS011;6306;47.134;15.344;2022-07-30T00:35:14;6.17;;;5.57;;
12482;SDS011;6306;47.134;15.344;2022-07-30T00:37:41;7.17;;;6.47;;
12482;SDS011;6306;47.134;15.344;2022-07-30T00:40:07;6.23;;;5.63;;
12482;SDS011;6306;47.134;15.344;2022-07-30T00:42:40;5.93;;;5.43;;
12482;SDS011;6306;47.134;15.344;2022-07-30T00:45:07;6.53;;;5.93;;
12482;SDS011;6306;47.134;15.344;2022-07-30T00:47:33;7.73;;;5.57;;
12482;SDS011;6306;47.134;15.344;2022-07-30T00:49:59;5.30;;;4.80;;
12482;SDS011;6306;47.134;15.344;2022-07-30T00:52:28;4.97;;;4.57;;
12482;SDS011;6306;47.134;15.344;2022-07-30T00:54:54;5.40;;;4.90;;
12482;SDS011;6306;47.134;15.344;2022-07-30T00:57:20;7.60;;;5.20;;
12482;SDS011;6306;47.134;15.344;2022-07-30T00:59:46;5.83;;;5.33;;
12482;SDS011;6306;47.134;15.344;2022-07-30T01:02:12;5.97;;;5.47;;
12482;SDS011;6306;47.134;15.344;2022-07-30T01:04:38;5.63;;;5.13;;
12482;SDS011;6306;47.134;15.344;2022-07-30T01:07:04;6.60;;;6.00;;
12482;SDS011;6306;47.134;15.344;2022-07-30T01:09:30;7.07;;;6.30;;
12482;SDS011;6306;47.134;15.344;2022-07-30T01:11:56;7.00;;;6.30;;
12482;SDS011;6306;47.134;15.344;2022-07-30T01:14:23;7.03;;;6.20;;
12482;SDS011;6306;47.134;15.344;2022-07-30T01:16:49;6.83;;;6.03;;
12482;SDS011;6306;47.134;15.344;2022-07-30T01:19:20;5.93;;;5.43;;
12482;SDS011;6306;47.134;15.344;2022-07-30T01:22:11;12.47;;;6.40;;
12482;SDS011;6306;47.134;15.344;2022-07-30T01:24:42;6.07;;;5.57;;
12482;SDS011;6306;47.134;15.344;2022-07-30T01:27:08;5.57;;;4.87;;
12482;SDS011;6306;47.134;15.344;2022-07-30T01:29:35;6.43;;;5.80;;
12482;SDS011;6306;47.134;15.344;2022-07-30T01:32:03;6.37;;;5.87;;
12482;SDS011;6306;47.134;15.344;2022-07-30T01:34:31;5.80;;;5.20;;
12482;SDS011;6306;47.134;15.344;2022-07-30T01:36:58;5.20;;;4.73;;
12482;SDS011;6306;47.134;15.344;2022-07-30T01:39:25;5.57;;;5.07;;
12482;SDS011;6306;47.134;15.344;2022-07-30T01:41:54;5.70;;;4.90;;
12482;SDS011;6306;47.134;15.344;2022-07-30T01:44:21;5.90;;;5.40;;
12482;SDS011;6306;47.134;15.344;2022-07-30T01:46:48;6.43;;;5.93;;
12482;SDS011;6306;47.134;15.344;2022-07-30T01:49:14;5.20;;;4.70;;
12482;SDS011;6306;47.134;15.344;2022-07-30T01:51:41;5.87;;;5.37;;
12482;SDS011;6306;47.134;15.344;2022-07-30T01:54:08;4.67;;;4.27;;
12482;SDS011;6306;47.134;15.344;2022-07-30T01:56:36;4.47;;;4.07;;
12482;SDS011;6306;47.134;15.344;2022-07-30T01:59:02;5.57;;;5.07;;
12482;SDS011;6306;47.134;15.344;2022-07-30T02:01:29;5.43;;;4.93;;
12482;SDS011;6306;47.134;15.344;2022-07-30T02:03:56;8.80;;;5.30;;
12482;SDS011;6306;47.134;15.344;2022-07-30T02:06:25;5.80;;;5.30;;
12482;SDS011;6306;47.134;15.344;2022-07-30T02:08:57;5.80;;;5.30;;
12482;SDS011;6306;47.134;15.344;2022-07-30T02:11:25;5.33;;;4.83;;
12482;SDS011;6306;47.134;15.344;2022-07-30T02:14:13;4.93;;;4.43;;
12482;SDS011;6306;47.134;15.344;2022-07-30T02:16:40;6.37;;;4.97;;
12482;SDS011;6306;47.134;15.344;2022-07-30T02:19:12;4.93;;;4.40;;
12482;SDS011;6306;47.134;15.344;2022-07-30T02:21:39;5.30;;;4.80;;
12482;SDS011;6306;47.134;15.344;2022-07-30T02:24:07;4.50;;;4.10;;
12482;SDS011;6306;47.134;15.344;2022-07-30T02:26:36;4.80;;;4.40;;
12482;SDS011;6306;47.134;15.344;2022-07-30T02:29:03;3.93;;;3.63;;
12482;SDS011;6306;47.134;15.344;2022-07-30T02:31:32;4.63;;;4.23;;
12482;SDS011;6306;47.134;15.344;2022-07-30T02:33:59;5.80;;;4.80;;
12482;SDS011;6306;47.134;15.344;2022-07-30T02:36:27;4.30;;;4.00;;
12482;SDS011;6306;47.134;15.344;2022-07-30T02:38:55;4.90;;;4.43;;
12482;SDS011;6306;47.134;15.344;2022-07-30T02:41:22;5.43;;;4.77;;
12482;SDS011;6306;47.134;15.344;2022-07-30T02:43:50;5.10;;;4.60;;
12482;SDS011;6306;47.134;15.344;2022-07-30T02:46:17;4.27;;;3.97;;
12482;SDS011;6306;47.134;15.344;2022-07-30T02:48:43;5.27;;;4.77;;
12482;SDS011;6306;47.134;15.344;2022-07-30T02:51:10;6.40;;;4.43;;
12482;SDS011;6306;47.134;15.344;2022-07-30T02:53:40;4.90;;;4.40;;
12482;SDS011;6306;47.134;15.344;2022-07-30T02:56:08;4.37;;;3.97;;
12482;SDS011;6306;47.134;15.344;2022-07-30T02:58:34;5.60;;;4.40;;
12482;SDS011;6306;47.134;15.344;2022-07-30T03:01:02;3.93;;;3.60;;
12482;SDS011;6306;47.134;15.344;2022-07-30T03:03:28;4.83;;;3.93;;
12482;SDS011;6306;47.134;15.344;2022-07-30T03:05:55;4.13;;;3.80;;
12482;SDS011;6306;47.134;15.344;2022-07-30T03:08:21;4.80;;;3.67;;
12482;SDS011;6306;47.134;15.344;2022-07-30T03:10:48;4.37;;;3.97;;
12482;SDS011;6306;47.134;15.344;2022-07-30T03:13:14;4.90;;;4.40;;
12482;SDS011;6306;47.134;15.344;2022-07-30T03:15:42;4.60;;;4.10;;
12482;SDS011;6306;47.134;15.344;2022-07-30T03:18:11;3.50;;;3.20;;
12482;SDS011;6306;47.134;15.344;2022-07-30T03:20:37;5.63;;;4.53;;
12482;SDS011;6306;47.134;15.344;2022-07-30T03:23:04;3.80;;;3.50;;
12482;SDS011;6306;47.134;15.344;2022-07-30T03:25:31;4.30;;;3.30;;
12482;SDS011;6306;47.134;15.344;2022-07-30T03:27:58;5.90;;;3.97;;
12482;SDS011;6306;47.134;15.344;2022-07-30T03:30:25;3.97;;;3.67;;
12482;SDS011;6306;47.134;15.344;2022-07-30T03:32:52;3.80;;;3.50;;
12482;SDS011;6306;47.134;15.344;2022-07-30T03:35:18;4.50;;;4.10;;
12482;SDS011;6306;47.134;15.344;2022-07-30T03:37:46;4.27;;;3.90;;
12482;SDS011;6306;47.134;15.344;2022-07-30T03:40:12;4.50;;;4.10;;
12482;SDS011;6306;47.134;15.344;2022-07-30T03:42:38;3.17;;;2.90;;
12482;SDS011;6306;47.134;15.344;2022-07-30T03:45:05;4.40;;;3.57;;
12482;SDS011;6306;47.134;15.344;2022-07-30T03:47:32;6.37;;;4.10;;
12482;SDS011;6306;47.134;15.344;2022-07-30T03:49:58;4.47;;;3.87;;
12482;SDS011;6306;47.134;15.344;2022-07-30T03:52:25;4.90;;;4.03;;
12482;SDS011;6306;47.134;15.344;2022-07-30T03:54:52;4.17;;;3.80;;
12482;SDS011;6306;47.134;15.344;2022-07-30T03:57:18;3.97;;;3.57;;
12482;SDS011;6306;47.134;15.344;2022-07-30T03:59:44;3.70;;;3.37;;
12482;SDS011;6306;47.134;15.344;2022-07-30T04:02:11;5.30;;;4.00;;
12482;SDS011;6306;47.134;15.344;2022-07-30T04:04:41;5.30;;;4.20;;
12482;SDS011;6306;47.134;15.344;2022-07-30T04:07:07;3.63;;;3.23;;
12482;SDS011;6306;47.134;15.344;2022-07-30T04:09:33;4.27;;;3.87;;
12482;SDS011;6306;47.134;15.344;2022-07-30T04:11:59;6.07;;;4.80;;
12482;SDS011;6306;47.134;15.344;2022-07-30T04:14:25;4.60;;;4.13;;
12482;SDS011;6306;47.134;15.344;2022-07-30T04:16:58;4.87;;;4.40;;
12482;SDS011;6306;47.134;15.344;2022-07-30T04:19:30;4.27;;;3.77;;
12482;SDS011;6306;47.134;15.344;2022-07-30T04:21:57;5.40;;;4.03;;
12482;SDS011;6306;47.134;15.344;2022-07-30T04:24:24;4.00;;;3.70;;
12482;SDS011;6306;47.134;15.344;2022-07-30T04:26:51;2.93;;;2.73;;
12482;SDS011;6306;47.134;15.344;2022-07-30T04:29:17;3.90;;;3.60;;
12482;SDS011;6306;47.134;15.344;2022-07-30T04:31:44;3.83;;;3.27;;
12482;SDS011;6306;47.134;15.344;2022-07-30T04:34:13;4.50;;;3.03;;
12482;SDS011;6306;47.134;15.344;2022-07-30T04:36:40;3.90;;;3.43;;
12482;SDS011;6306;47.134;15.344;2022-07-30T04:39:06;3.70;;;3.40;;
12482;SDS011;6306;47.134;15.344;2022-07-30T04:41:32;5.87;;;3.80;;
12482;SDS011;6306;47.134;15.344;2022-07-30T04:43:58;4.07;;;3.47;;
12482;SDS011;6306;47.134;15.344;2022-07-30T04:46:24;3.90;;;3.50;;
12482;SDS011;6306;47.134;15.344;2022-07-30T04:48:50;4.30;;;3.90;;
12482;SDS011;6306;47.134;15.344;2022-07-30T04:51:27;4.80;;;4.40;;
12482;SDS011;6306;47.134;15.344;2022-07-30T04:53:54;5.90;;;5.40;;
12482;SDS011;6306;47.134;15.344;2022-07-30T04:56:22;4.70;;;4.30;;
12482;SDS011;6306;47.134;15.344;2022-07-30T04:58:49;4.60;;;4.20;;
12482;SDS011;6306;47.134;15.344;2022-07-30T05:01:16;6.27;;;4.80;;
12482;SDS011;6306;47.134;15.344;2022-07-30T05:03:43;5.67;;;5.20;;
12482;SDS011;6306;47.134;15.344;2022-07-30T05:06:10;6.63;;;4.87;;
12482;SDS011;6306;47.134;15.344;2022-07-30T05:08:37;5.07;;;4.57;;
12482;SDS011;6306;47.134;15.344;2022-07-30T05:11:03;4.53;;;4.23;;
12482;SDS011;6306;47.134;15.344;2022-07-30T05:13:29;4.90;;;4.50;;
12482;SDS011;6306;47.134;15.344;2022-07-30T05:15:55;5.20;;;4.70;;
12482;SDS011;6306;47.134;15.344;2022-07-30T05:18:21;5.43;;;4.93;;
12482;SDS011;6306;47.134;15.344;2022-07-30T05:20:47;5.87;;;5.00;;
12482;SDS011;6306;47.134;15.344;2022-07-30T05:23:13;5.43;;;5.03;;
12482;SDS011;6306;47.134;15.344;2022-07-30T05:25:39;5.27;;;4.87;;
12482;SDS011;6306;47.134;15.344;2022-07-30T05:28:05;5.60;;;5.10;;
12482;SDS011;6306;47.134;15.344;2022-07-30T05:30:31;5.30;;;4.87;;
12482;SDS011;6306;47.134;15.344;2022-07-30T05:32:57;5.57;;;5.07;;
12482;SDS011;6306;47.134;15.344;2022-07-30T05:35:23;4.50;;;4.03;;
12482;SDS011;6306;47.134;15.344;2022-07-30T05:37:49;3.70;;;3.40;;
12482;SDS011;6306;47.134;15.344;2022-07-30T05:40:15;4.33;;;3.60;;
12482;SDS011;6306;47.134;15.344;2022-07-30T05:42:41;3.80;;;3.33;;
12482;SDS011;6306;47.134;15.344;2022-07-30T05:45:07;3.70;;;2.87;;
12482;SDS011;6306;47.134;15.344;2022-07-30T05:47:33;2.60;;;2.40;;
12482;SDS011;6306;47.134;15.344;2022-07-30T05:49:59;3.80;;;3.27;;
12482;SDS011;6306;47.134;15.344;2022-07-30T05:52:25;2.60;;;2.40;;
12482;SDS011;6306;47.134;15.344;2022-07-30T05:54:52;2.83;;;2.63;;
12482;SDS011;6306;47.134;15.344;2022-07-30T05:57:18;3.53;;;3.33;;
12482;SDS011;6306;47.134;15.344;2022-07-30T05:59:44;2.90;;;2.70;;
12482;SDS011;6306;47.134;15.344;2022-07-30T06:02:11;2.33;;;2.17;;
12482;SDS011;6306;47.134;15.344;2022-07-30T06:04:37;3.00;;;2.60;;
12482;SDS011;6306;47.134;15.344;2022-07-30T06:07:03;2.70;;;2.50;;
12482;SDS011;6306;47.134;15.344;2022-07-30T06:09:29;3.00;;;2.80;;
12482;SDS011;6306;47.134;15.344;2022-07-30T06:11:55;3.07;;;2.50;;
12482;SDS011;6306;47.134;15.344;2022-07-30T06:14:21;9.07;;;3.37;;
12482;SDS011;6306;47.134;15.344;2022-07-30T06:16:47;3.57;;;3.27;;
12482;SDS011;6306;47.134;15.344;2022-07-30T06:19:13;7.63;;;3.63;;
12482;SDS011;6306;47.134;15.344;2022-07-30T06:21:39;3.73;;;2.90;;
12482;SDS011;6306;47.134;15.344;2022-07-30T06:24:05;2.83;;;2.37;;
12482;SDS011;6306;47.134;15.344;2022-07-30T06:26:32;3.10;;;2.80;;
12482;SDS011;6306;47.134;15.344;2022-07-30T06:28:58;3.90;;;3.27;;
12482;SDS011;6306;47.134;15.344;2022-07-30T06:31:23;3.30;;;3.00;;
12482;SDS011;6306;47.134;15.344;2022-07-30T06:33:49;4.40;;;3.40;;
12482;SDS011;6306;47.134;15.344;2022-07-30T06:36:15;3.20;;;2.60;;
12482;SDS011;6306;47.134;15.344;2022-07-30T06:38:41;2.80;;;2.53;;
12482;SDS011;6306;47.134;15.344;2022-07-30T06:41:08;2.87;;;2.30;;
12482;SDS011;6306;47.134;15.344;2022-07-30T06:43:34;3.50;;;3.10;;
12482;SDS011;6306;47.134;15.344;2022-07-30T06:46:00;2.43;;;2.33;;
12482;SDS011;6306;47.134;15.344;2022-07-30T06:48:26;3.13;;;2.70;;
12482;SDS011;6306;47.134;15.344;2022-07-30T06:50:52;2.57;;;2.37;;
12482;SDS011;6306;47.134;15.344;2022-07-30T06:53:18;3.43;;;2.53;;
12482;SDS011;6306;47.134;15.344;2022-07-30T06:55:44;2.13;;;2.03;;
12482;SDS011;6306;47.134;15.344;2022-07-30T06:58:10;4.20;;;2.20;;
12482;SDS011;6306;47.134;15.344;2022-07-30T07:00:36;2.50;;;2.20;;
12482;SDS011;6306;47.134;15.344;2022-07-30T07:03:02;2.87;;;2.67;;
12482;SDS011;6306;47.134;15.344;2022-07-30T07:05:27;2.77;;;2.50;;
12482;SDS011;6306;47.134;15.344;2022-07-30T07:07:54;3.43;;;3.13;;
12482;SDS011;6306;47.134;15.344;2022-07-30T07:10:20;3.33;;;2.43;;
12482;SDS011;6306;47.134;15.344;2022-07-30T07:12:46;2.80;;;2.60;;
12482;SDS011;6306;47.134;15.344;2022-07-30T07:15:12;5.57;;;3.07;;
12482;SDS011;6306;47.134;15.344;2022-07-30T07:17:38;4.77;;;2.30;;
12482;SDS011;6306;47.134;15.344;2022-07-30T07:20:05;2.50;;;2.30;;
12482;SDS011;6306;47.134;15.344;2022-07-30T07:22:32;3.43;;;3.10;;
12482;SDS011;6306;47.134;15.344;2022-07-30T07:24:58;3.27;;;2.97;;
12482;SDS011;6306;47.134;15.344;2022-07-30T07:27:24;3.33;;;2.93;;
12482;SDS011;6306;47.134;15.344;2022-07-30T07:29:50;3.13;;;2.73;;
12482;SDS011;6306;47.134;15.344;2022-07-30T07:32:16;2.47;;;2.33;;
12482;SDS011;6306;47.134;15.344;2022-07-30T07:34:42;2.93;;;2.60;;
12482;SDS011;6306;47.134;15.344;2022-07-30T07:37:08;2.90;;;2.67;;
12482;SDS011;6306;47.134;15.344;2022-07-30T07:39:34;3.10;;;2.90;;
12482;SDS011;6306;47.134;15.344;2022-07-30T07:42:00;3.20;;;2.90;;
12482;SDS011;6306;47.134;15.344;2022-07-30T07:44:26;3.17;;;2.80;;
12482;SDS011;6306;47.134;15.344;2022-07-30T07:46:52;2.80;;;2.60;;
12482;SDS011;6306;47.134;15.344;2022-07-30T07:49:18;3.50;;;3.20;;
12482;SDS011;6306;47.134;15.344;2022-07-30T07:51:44;4.53;;;2.40;;
12482;SDS011;6306;47.134;15.344;2022-07-30T07:54:10;3.10;;;2.40;;
12482;SDS011;6306;47.134;15.344;2022-07-30T07:56:36;2.83;;;2.53;;
12482;SDS011;6306;47.134;15.344;2022-07-30T07:59:02;2.60;;;2.40;;
12482;SDS011;6306;47.134;15.344;2022-07-30T08:01:28;2.43;;;2.23;;
12482;SDS011;6306;47.134;15.344;2022-07-30T08:03:54;2.33;;;2.13;;
12482;SDS011;6306;47.134;15.344;2022-07-30T08:06:20;4.33;;;2.07;;
12482;SDS011;6306;47.134;15.344;2022-07-30T08:08:46;2.37;;;2.00;;
12482;SDS011;6306;47.134;15.344;2022-07-30T08:11:12;2.37;;;2.17;;
12482;SDS011;6306;47.134;15.344;2022-07-30T08:13:38;2.27;;;2.17;;
12482;SDS011;6306;47.134;15.344;2022-07-30T08:16:04;1.97;;;1.87;;
12482;SDS011;6306;47.134;15.344;2022-07-30T08:18:32;2.07;;;1.90;;
12482;SDS011;6306;47.134;15.344;2022-07-30T08:20:58;2.43;;;2.23;;
12482;SDS011;6306;47.134;15.344;2022-07-30T08:23:24;3.57;;;3.27;;
12482;SDS011;6306;47.134;15.344;2022-07-30T08:25:50;2.40;;;2.17;;
12482;SDS011;6306;47.134;15.344;2022-07-30T08:28:16;2.40;;;2.20;;
12482;SDS011;6306;47.134;15.344;2022-07-30T08:30:42;2.60;;;2.40;;
12482;SDS011;6306;47.134;15.344;2022-07-30T08:33:08;3.90;;;3.23;;
12482;SDS011;6306;47.134;15.344;2022-07-30T08:35:34;4.10;;;3.47;;
12482;SDS011;6306;47.134;15.344;2022-07-30T08:38:00;3.17;;;2.90;;
12482;SDS011;6306;47.134;15.344;2022-07-30T08:40:26;2.47;;;2.27;;
12482;SDS011;6306;47.134;15.344;2022-07-30T08:42:52;2.10;;;1.93;;
12482;SDS011;6306;47.134;15.344;2022-07-30T08:45:18;1.93;;;1.80;;
12482;SDS011;6306;47.134;15.344;2022-07-30T08:47:45;2.43;;;2.23;;
12482;SDS011;6306;47.134;15.344;2022-07-30T08:50:11;3.07;;;2.60;;
12482;SDS011;6306;47.134;15.344;2022-07-30T08:52:38;3.43;;;2.47;;
12482;SDS011;6306;47.134;15.344;2022-07-30T08:55:05;1.93;;;1.80;;
12482;SDS011;6306;47.134;15.344;2022-07-30T08:57:35;2.47;;;2.27;;
12482;SDS011;6306;47.134;15.344;2022-07-30T09:00:02;5.00;;;2.77;;
12482;SDS011;6306;47.134;15.344;2022-07-30T09:02:29;1.57;;;1.47;;
12482;SDS011;6306;47.134;15.344;2022-07-30T09:04:55;2.20;;;2.00;;
12482;SDS011;6306;47.134;15.344;2022-07-30T09:07:21;2.13;;;2.03;;
12482;SDS011;6306;47.134;15.344;2022-07-30T09:09:47;2.87;;;2.30;;
12482;SDS011;6306;47.134;15.344;2022-07-30T09:15:14;2.63;;;2.43;;
12482;SDS011;6306;47.134;15.344;2022-07-30T09:20:13;2.57;;;2.47;;
12482;SDS011;6306;47.134;15.344;2022-07-30T09:22:43;3.53;;;2.73;;
12482;SDS011;6306;47.134;15.344;2022-07-30T09:25:10;3.40;;;3.10;;
12482;SDS011;6306;47.134;15.344;2022-07-30T09:27:42;2.90;;;2.70;;
12482;SDS011;6306;47.134;15.344;2022-07-30T09:30:09;5.70;;;2.60;;
12482;SDS011;6306;47.134;15.344;2022-07-30T09:32:52;7.83;;;2.63;;
12482;SDS011;6306;47.134;15.344;2022-07-30T09:35:18;3.93;;;2.43;;
12482;SDS011;6306;47.134;15.344;2022-07-30T09:37:45;2.83;;;2.63;;
12482;SDS011;6306;47.134;15.344;2022-07-30T09:40:15;2.70;;;2.50;;
12482;SDS011;6306;47.134;15.344;2022-07-30T09:42:42;2.87;;;2.67;;
12482;SDS011;6306;47.134;15.344;2022-07-30T09:45:09;3.60;;;3.30;;
12482;SDS011;6306;47.134;15.344;2022-07-30T09:47:38;3.80;;;3.50;;
12482;SDS011;6306;47.134;15.344;2022-07-30T09:50:05;4.20;;;3.90;;
12482;SDS011;6306;47.134;15.344;2022-07-30T09:52:33;3.67;;;3.40;;
12482;SDS011;6306;47.134;15.344;2022-07-30T09:54:59;3.67;;;3.10;;
12482;SDS011;6306;47.134;15.344;2022-07-30T09:57:25;3.80;;;3.50;;
12482;SDS011;6306;47.134;15.344;2022-07-30T09:59:51;4.10;;;3.70;;
12482;SDS011;6306;47.134;15.344;2022-07-30T10:02:17;3.93;;;3.70;;
12482;SDS011;6306;47.134;15.344;2022-07-30T10:04:43;4.57;;;4.17;;
12482;SDS011;6306;47.134;15.344;2022-07-30T10:07:19;3.80;;;3.50;;
12482;SDS011;6306;47.134;15.344;2022-07-30T10:09:46;4.67;;;3.43;;
12482;SDS011;6306;47.134;15.344;2022-07-30T10:12:13;4.87;;;4.47;;
12482;SDS011;6306;47.134;15.344;2022-07-30T10:14:40;6.00;;;3.30;;
12482;SDS011;6306;47.134;15.344;2022-07-30T10:17:08;4.13;;;3.83;;
12482;SDS011;6306;47.134;15.344;2022-07-30T10:19:34;2.77;;;2.57;;
12482;SDS011;6306;47.134;15.344;2022-07-30T10:22:01;4.23;;;3.93;;
12482;SDS011;6306;47.134;15.344;2022-07-30T10:24:27;4.40;;;4.07;;
12482;SDS011;6306;47.134;15.344;2022-07-30T10:26:55;4.60;;;4.20;;
12482;SDS011;6306;47.134;15.344;2022-07-30T10:29:21;4.43;;;4.07;;
12482;SDS011;6306;47.134;15.344;2022-07-30T10:31:47;4.10;;;3.80;;
12482;SDS011;6306;47.134;15.344;2022-07-30T10:34:14;4.10;;;3.70;;
12482;SDS011;6306;47.134;15.344;2022-07-30T10:36:45;3.30;;;3.10;;
12482;SDS011;6306;47.134;15.344;2022-07-30T10:39:12;3.97;;;3.67;;
12482;SDS011;6306;47.134;15.344;2022-07-30T10:41:46;4.60;;;4.20;;
12482;SDS011;6306;47.134;15.344;2022-07-30T10:44:27;3.17;;;2.87;;
12482;SDS011;6306;47.134;15.344;2022-07-30T10:47:00;3.73;;;3.43;;
12482;SDS011;6306;47.134;15.344;2022-07-30T10:49:27;3.40;;;3.10;;
12482;SDS011;6306;47.134;15.344;2022-07-30T10:51:53;2.80;;;2.60;;
12482;SDS011;6306;47.134;15.344;2022-07-30T10:54:41;3.53;;;3.23;;
12482;SDS011;6306;47.134;15.344;2022-07-30T10:57:07;3.50;;;2.93;;
12482;SDS011;6306;47.134;15.344;2022-07-30T11:02:12;3.90;;;3.60;;
12482;SDS011;6306;47.134;15.344;2022-07-30T11:04:38;3.37;;;3.13;;
12482;SDS011;6306;47.134;15.344;2022-07-30T11:09:46;3.70;;;3.40;;
12482;SDS011;6306;47.134;15.344;2022-07-30T11:12:12;3.80;;;3.40;;
12482;SDS011;6306;47.134;15.344;2022-07-30T11:17:10;3.57;;;3.13;;
12482;SDS011;6306;47.134;15.344;2022-07-30T11:22:23;3.43;;;3.13;;
12482;SDS011;6306;47.134;15.344;2022-07-30T11:24:49;3.57;;;3.27;;
12482;SDS011;6306;47.134;15.344;2022-07-30T11:30:00;3.00;;;2.80;;
12482;SDS011;6306;47.134;15.344;2022-07-30T11:37:53;4.23;;;2.93;;
12482;SDS011;6306;47.134;15.344;2022-07-30T11:40:19;3.20;;;2.87;;
12482;SDS011;6306;47.134;15.344;2022-07-30T11:42:47;3.40;;;3.10;;
12482;SDS011;6306;47.134;15.344;2022-07-30T11:52:47;3.20;;;3.00;;
12482;SDS011;6306;47.134;15.344;2022-07-30T11:55:20;2.93;;;2.73;;
12482;SDS011;6306;47.134;15.344;2022-07-30T11:57:46;3.23;;;2.93;;
12482;SDS011;6306;47.134;15.344;2022-07-30T12:00:12;3.40;;;3.00;;
12482;SDS011;6306;47.134;15.344;2022-07-30T12:02:38;3.57;;;3.20;;
12482;SDS011;6306;47.134;15.344;2022-07-30T12:05:04;2.93;;;2.70;;
12482;SDS011;6306;47.134;15.344;2022-07-30T12:07:30;3.63;;;3.43;;
12482;SDS011;6306;47.134;15.344;2022-07-30T12:10:16;3.33;;;3.03;;
12482;SDS011;6306;47.134;15.344;2022-07-30T12:12:43;3.00;;;2.80;;
12482;SDS011;6306;47.134;15.344;2022-07-30T12:15:09;3.00;;;2.70;;
12482;SDS011;6306;47.134;15.344;2022-07-30T12:17:42;3.33;;;2.50;;
12482;SDS011;6306;47.134;15.344;2022-07-30T12:20:18;3.00;;;2.80;;
12482;SDS011;6306;47.134;15.344;2022-07-30T12:22:44;2.53;;;2.33;;
12482;SDS011;6306;47.134;15.344;2022-07-30T12:25:11;3.00;;;2.80;;
12482;SDS011;6306;47.134;15.344;2022-07-30T12:27:37;2.47;;;2.27;;
12482;SDS011;6306;47.134;15.344;2022-07-30T12:30:03;2.73;;;2.53;;
12482;SDS011;6306;47.134;15.344;2022-07-30T12:32:30;2.77;;;2.30;;
12482;SDS011;6306;47.134;15.344;2022-07-30T12:34:56;2.10;;;1.93;;
12482;SDS011;6306;47.134;15.344;2022-07-30T12:37:23;1.77;;;1.67;;
12482;SDS011;6306;47.134;15.344;2022-07-30T12:40:03;2.80;;;2.30;;
12482;SDS011;6306;47.134;15.344;2022-07-30T12:42:29;2.53;;;2.33;;
12482;SDS011;6306;47.134;15.344;2022-07-30T12:44:55;2.57;;;2.37;;
12482;SDS011;6306;47.134;15.344;2022-07-30T12:47:23;2.60;;;2.40;;
12482;SDS011;6306;47.134;15.344;2022-07-30T12:49:49;2.60;;;2.50;;
12482;SDS011;6306;47.134;15.344;2022-07-30T12:52:19;2.70;;;2.50;;
12482;SDS011;6306;47.134;15.344;2022-07-30T12:54:55;2.60;;;2.40;;
12482;SDS011;6306;47.134;15.344;2022-07-30T12:57:21;3.10;;;2.90;;
12482;SDS011;6306;47.134;15.344;2022-07-30T12:59:47;2.60;;;2.37;;
12482;SDS011;6306;47.134;15.344;2022-07-30T13:02:34;2.80;;;2.50;;
12482;SDS011;6306;47.134;15.344;2022-07-30T13:05:01;2.70;;;2.50;;
12482;SDS011;6306;47.134;15.344;2022-07-30T13:07:27;2.80;;;2.60;;
12482;SDS011;6306;47.134;15.344;2022-07-30T13:10:05;3.43;;;3.13;;
12482;SDS011;6306;47.134;15.344;2022-07-30T13:12:31;2.60;;;2.30;;
12482;SDS011;6306;47.134;15.344;2022-07-30T13:14:58;3.37;;;3.13;;
12482;SDS011;6306;47.134;15.344;2022-07-30T13:17:23;3.30;;;2.30;;
12482;SDS011;6306;47.134;15.344;2022-07-30T13:19:49;3.47;;;2.37;;
12482;SDS011;6306;47.134;15.344;2022-07-30T13:22:15;3.07;;;2.87;;
12482;SDS011;6306;47.134;15.344;2022-07-30T13:24:41;3.20;;;3.00;;
12482;SDS011;6306;47.134;15.344;2022-07-30T13:27:07;3.17;;;2.90;;
12482;SDS011;6306;47.134;15.344;2022-07-30T13:29:33;2.53;;;2.37;;
12482;SDS011;6306;47.134;15.344;2022-07-30T13:31:59;2.90;;;2.40;;
12482;SDS011;6306;47.134;15.344;2022-07-30T13:34:26;2.53;;;2.43;;
12482;SDS011;6306;47.134;15.344;2022-07-30T13:36:51;4.43;;;2.80;;
12482;SDS011;6306;47.134;15.344;2022-07-30T13:39:17;3.07;;;2.77;;
12482;SDS011;6306;47.134;15.344;2022-07-30T13:41:43;2.20;;;2.10;;
12482;SDS011;6306;47.134;15.344;2022-07-30T13:44:09;2.70;;;2.50;;
12482;SDS011;6306;47.134;15.344;2022-07-30T13:46:36;2.77;;;2.57;;
12482;SDS011;6306;47.134;15.344;2022-07-30T13:49:02;2.47;;;2.37;;
12482;SDS011;6306;47.134;15.344;2022-07-30T13:51:29;2.20;;;2.00;;
12482;SDS011;6306;47.134;15.344;2022-07-30T13:53:55;2.80;;;2.53;;
12482;SDS011;6306;47.134;15.344;2022-07-30T13:56:21;2.93;;;2.10;;
12482;SDS011;6306;47.134;15.344;2022-07-30T13:58:47;2.13;;;2.03;;
12482;SDS011;6306;47.134;15.344;2022-07-30T14:01:13;2.97;;;2.67;;
12482;SDS011;6306;47.134;15.344;2022-07-30T14:03:39;2.70;;;2.50;;
12482;SDS011;6306;47.134;15.344;2022-07-30T14:06:05;2.60;;;2.40;;
12482;SDS011;6306;47.134;15.344;2022-07-30T14:08:31;2.40;;;2.20;;
12482;SDS011;6306;47.134;15.344;2022-07-30T14:10:57;2.50;;;2.30;;
12482;SDS011;6306;47.134;15.344;2022-07-30T14:13:23;2.37;;;2.20;;
12482;SDS011;6306;47.134;15.344;2022-07-30T14:15:49;2.10;;;2.00;;
12482;SDS011;6306;47.134;15.344;2022-07-30T14:18:15;3.63;;;2.60;;
12482;SDS011;6306;47.134;15.344;2022-07-30T14:20:41;2.60;;;2.40;;
12482;SDS011;6306;47.134;15.344;2022-07-30T14:23:07;2.47;;;2.27;;
12482;SDS011;6306;47.134;15.344;2022-07-30T14:25:34;2.43;;;2.23;;
12482;SDS011;6306;47.134;15.344;2022-07-30T14:28:00;2.33;;;2.17;;
12482;SDS011;6306;47.134;15.344;2022-07-30T14:30:26;1.97;;;1.87;;
12482;SDS011;6306;47.134;15.344;2022-07-30T14:32:52;2.43;;;2.00;;
12482;SDS011;6306;47.134;15.344;2022-07-30T14:35:18;2.47;;;2.27;;
12482;SDS011;6306;47.134;15.344;2022-07-30T14:37:44;2.13;;;2.00;;
12482;SDS011;6306;47.134;15.344;2022-07-30T14:40:10;2.80;;;2.13;;
12482;SDS011;6306;47.134;15.344;2022-07-30T14:42:36;2.50;;;2.30;;
12482;SDS011;6306;47.134;15.344;2022-07-30T14:45:04;2.50;;;2.30;;
12482;SDS011;6306;47.134;15.344;2022-07-30T14:47:30;2.00;;;1.90;;
12482;SDS011;6306;47.134;15.344;2022-07-30T14:49:57;3.50;;;2.30;;
12482;SDS011;6306;47.134;15.344;2022-07-30T14:52:23;2.30;;;2.10;;
12482;SDS011;6306;47.134;15.344;2022-07-30T14:54:49;1.83;;;1.73;;
12482;SDS011;6306;47.134;15.344;2022-07-30T14:57:16;2.20;;;2.00;;
12482;SDS011;6306;47.134;15.344;2022-07-30T14:59:42;1.83;;;1.73;;
12482;SDS011;6306;47.134;15.344;2022-07-30T15:02:08;2.43;;;2.13;;
12482;SDS011;6306;47.134;15.344;2022-07-30T15:04:34;2.03;;;1.93;;
12482;SDS011;6306;47.134;15.344;2022-07-30T15:07:00;1.30;;;1.20;;
12482;SDS011;6306;47.134;15.344;2022-07-30T15:09:26;1.97;;;1.63;;
12482;SDS011;6306;47.134;15.344;2022-07-30T15:11:52;1.97;;;1.77;;
12482;SDS011;6306;47.134;15.344;2022-07-30T15:14:18;1.50;;;1.43;;
12482;SDS011;6306;47.134;15.344;2022-07-30T15:16:44;1.47;;;1.37;;
12482;SDS011;6306;47.134;15.344;2022-07-30T15:19:10;1.67;;;1.57;;